createdAt,value
2018-03-15T00:01:09.715Z,83.60
2018-03-15T00:03:36.151Z,84.00
2018-03-15T00:06:02.539Z,83.70
2018-03-15T00:08:28.936Z,83.90
2018-03-15T00:10:55.344Z,83.70
2018-03-15T00:13:21.738Z,84.70
2018-03-15T00:15:48.138Z,85.20
2018-03-15T00:18:14.560Z,86.00
2018-03-15T00:20:40.932Z,86.70
2018-03-15T00:23:07.308Z,86.20
2018-03-15T00:25:33.706Z,86.10
2018-03-15T00:28:00.823Z,86.70
2018-03-15T00:30:27.196Z,86.10
2018-03-15T00:32:54.392Z,85.80
2018-03-15T00:35:20.742Z,85.80
2018-03-15T00:37:47.131Z,85.80
2018-03-15T00:40:13.798Z,86.30
2018-03-15T00:42:40.208Z,85.20
2018-03-15T00:45:06.601Z,84.70
2018-03-15T00:47:32.975Z,84.90
2018-03-15T00:49:59.340Z,84.90
2018-03-15T00:52:25.725Z,85.60
2018-03-15T00:54:52.128Z,84.50
2018-03-15T00:57:19.267Z,84.70
2018-03-15T00:59:46.394Z,84.60
2018-03-15T01:02:12.822Z,84.60
2018-03-15T01:04:39.273Z,84.90
2018-03-15T01:07:05.684Z,85.40
2018-03-15T01:09:45.565Z,85.20
2018-03-15T01:12:11.963Z,85.40
2018-03-15T01:14:51.628Z,84.70
2018-03-15T01:17:18.045Z,84.90
2018-03-15T01:19:44.428Z,84.70
2018-03-15T01:22:11.665Z,85.20
2018-03-15T01:24:38.799Z,85.10
2018-03-15T01:27:05.193Z,85.10
2018-03-15T01:29:31.653Z,85.40
2018-03-15T01:31:58.043Z,85.50
2018-03-15T01:34:24.477Z,85.50
2018-03-15T01:36:50.868Z,85.50
2018-03-15T01:39:17.269Z,85.40
2018-03-15T01:41:43.693Z,86.20
2018-03-15T01:44:10.080Z,86.10
2018-03-15T01:46:36.477Z,86.10
2018-03-15T01:49:02.877Z,86.10
2018-03-15T01:51:30.209Z,86.60
2018-03-15T01:53:56.626Z,86.50
2018-03-15T01:56:23.835Z,86.50
2018-03-15T01:58:50.242Z,86.40
2018-03-15T02:01:16.655Z,86.80
2018-03-15T02:03:43.802Z,86.50
2018-03-15T02:06:10.976Z,86.90
2018-03-15T02:08:37.370Z,86.80
2018-03-15T02:11:03.769Z,86.70
2018-03-15T02:13:30.146Z,86.70
2018-03-15T02:15:57.320Z,86.00
2018-03-15T02:18:23.760Z,86.00
2018-03-15T02:20:50.357Z,86.10
2018-03-15T02:23:17.505Z,86.50
2018-03-15T02:25:44.949Z,86.80
2018-03-15T02:28:12.088Z,87.50
2018-03-15T02:30:38.504Z,87.50
2018-03-15T02:33:04.964Z,87.30
2018-03-15T02:35:31.338Z,87.30
2018-03-15T02:37:57.723Z,87.20
2018-03-15T02:40:24.128Z,87.40
2018-03-15T02:42:50.504Z,88.10
2018-03-15T02:45:16.904Z,88.10
2018-03-15T02:47:43.299Z,88.40
2018-03-15T02:50:09.714Z,88.20
2018-03-15T02:52:36.859Z,87.90
2018-03-15T02:55:04.006Z,88.20
2018-03-15T02:57:30.432Z,88.20
2018-03-15T02:59:56.867Z,88.10
2018-03-15T03:02:24.016Z,88.30
2018-03-15T03:04:50.457Z,88.30
2018-03-15T03:07:17.611Z,88.80
2018-03-15T03:09:44.743Z,89.00
2018-03-15T03:12:11.887Z,90.00
2018-03-15T03:14:39.050Z,89.80
2018-03-15T03:17:06.181Z,90.20
2018-03-15T03:19:32.918Z,89.90
2018-03-15T03:21:59.310Z,90.00
2018-03-15T03:24:25.697Z,90.20
2018-03-15T03:26:52.837Z,90.80
2018-03-15T03:29:19.257Z,90.90
2018-03-15T03:31:45.663Z,91.00
2018-03-15T03:34:12.080Z,90.60
2018-03-15T03:36:38.475Z,90.10
2018-03-15T03:39:04.884Z,89.80
2018-03-15T03:41:31.277Z,90.00
2018-03-15T03:43:57.661Z,90.60
2018-03-15T03:46:24.132Z,90.60
2018-03-15T03:48:51.239Z,90.60
2018-03-15T03:51:17.634Z,90.60
2018-03-15T03:53:44.021Z,90.60
2018-03-15T03:56:10.439Z,90.80
2018-03-15T03:58:36.848Z,90.90
2018-03-15T04:01:03.244Z,91.20
2018-03-15T04:03:29.629Z,91.50
2018-03-15T04:05:56.088Z,91.40
2018-03-15T04:08:23.229Z,91.80
2018-03-15T04:10:49.606Z,91.80
2018-03-15T04:13:15.997Z,91.90
2018-03-15T04:15:43.159Z,92.80
2018-03-15T04:18:09.523Z,92.60
2018-03-15T04:20:36.005Z,92.90
2018-03-15T04:23:02.420Z,92.90
2018-03-15T04:25:28.820Z,93.00
2018-03-15T04:27:55.205Z,93.00
2018-03-15T04:30:22.323Z,93.10
2018-03-15T04:32:48.697Z,93.10
2018-03-15T04:35:15.868Z,93.50
2018-03-15T04:37:42.251Z,93.50
2018-03-15T04:40:08.633Z,93.60
2018-03-15T04:42:35.022Z,93.70
2018-03-15T04:45:02.244Z,94.00
2018-03-15T04:47:28.648Z,94.00
2018-03-15T04:49:55.030Z,94.10
2018-03-15T04:52:21.415Z,94.10
2018-03-15T04:54:47.805Z,94.20
2018-03-15T04:57:14.203Z,94.30
2018-03-15T04:59:40.596Z,94.30
2018-03-15T05:02:07.706Z,94.40
2018-03-15T05:04:34.102Z,94.40
2018-03-15T05:07:00.506Z,94.30
2018-03-15T05:09:26.899Z,94.30
2018-03-15T05:11:53.291Z,94.20
2018-03-15T05:14:19.819Z,94.20
2018-03-15T05:16:46.212Z,94.30
2018-03-15T05:19:12.589Z,94.20
2018-03-15T05:21:38.981Z,94.30
2018-03-15T05:24:06.134Z,94.10
2018-03-15T05:26:33.264Z,94.20
2018-03-15T05:28:59.650Z,94.10
2018-03-15T05:31:26.048Z,93.90
2018-03-15T05:33:53.178Z,94.00
2018-03-15T05:36:19.549Z,94.00
2018-03-15T05:38:45.929Z,94.00
2018-03-15T05:41:12.358Z,94.00
2018-03-15T05:43:38.792Z,93.70
2018-03-15T05:46:05.185Z,93.40
2018-03-15T05:48:31.554Z,93.60
2018-03-15T05:50:57.936Z,93.50
2018-03-15T05:53:24.313Z,93.80
2018-03-15T05:55:50.707Z,93.80
2018-03-15T05:58:17.084Z,94.10
2018-03-15T06:00:43.476Z,94.30
2018-03-15T06:03:09.856Z,94.40
2018-03-15T06:05:36.299Z,94.40
2018-03-15T06:08:02.737Z,94.80
2018-03-15T06:10:29.115Z,94.50
2018-03-15T06:12:55.504Z,94.40
2018-03-15T06:15:22.645Z,94.50
2018-03-15T06:17:49.053Z,94.50
2018-03-15T06:20:15.533Z,94.50
2018-03-15T06:22:42.017Z,94.40
2018-03-15T06:25:08.422Z,94.70
2018-03-15T06:27:34.823Z,94.50
2018-03-15T06:30:01.970Z,94.40
2018-03-15T06:32:29.208Z,94.30
2018-03-15T06:34:56.396Z,94.10
2018-03-15T06:37:22.783Z,94.10
2018-03-15T06:39:49.200Z,94.20
2018-03-15T06:42:15.610Z,94.00
2018-03-15T06:44:42.148Z,94.10
2018-03-15T06:47:08.538Z,94.20
2018-03-15T06:49:35.672Z,93.90
2018-03-15T06:52:02.070Z,93.90
2018-03-15T06:54:28.450Z,94.00
2018-03-15T06:56:55.596Z,93.90
2018-03-15T06:59:22.006Z,93.90
2018-03-15T07:01:48.431Z,93.80
2018-03-15T07:04:14.862Z,93.60
2018-03-15T07:06:41.261Z,93.50
2018-03-15T07:09:07.645Z,93.50
2018-03-15T07:11:34.068Z,93.60
2018-03-15T07:14:01.276Z,93.20
2018-03-15T07:16:27.695Z,93.20
2018-03-15T07:18:54.146Z,93.20
2018-03-15T07:21:20.568Z,93.30
2018-03-15T07:23:46.981Z,92.80
2018-03-15T07:26:14.172Z,93.00
2018-03-15T07:28:40.568Z,93.00
2018-03-15T07:31:07.732Z,93.10
2018-03-15T07:33:34.126Z,93.00
2018-03-15T07:36:00.611Z,93.20
2018-03-15T07:38:27.016Z,93.10
2018-03-15T07:40:54.152Z,93.30
2018-03-15T07:43:20.521Z,93.30
2018-03-15T07:45:47.052Z,93.10
2018-03-15T07:48:13.499Z,92.70
2018-03-15T07:50:39.964Z,92.30
2018-03-15T07:53:06.372Z,92.10
2018-03-15T07:55:32.780Z,91.70
2018-03-15T07:57:59.164Z,91.70
2018-03-15T08:00:25.573Z,91.90
2018-03-15T08:02:51.953Z,91.20
2018-03-15T08:05:19.083Z,91.60
2018-03-15T08:07:45.470Z,91.50
2018-03-15T08:10:11.884Z,91.30
2018-03-15T08:12:38.275Z,91.80
2018-03-15T08:15:04.718Z,91.70
2018-03-15T08:17:31.102Z,91.60
2018-03-15T08:19:57.480Z,91.70
2018-03-15T08:22:23.889Z,91.70
2018-03-15T08:24:50.282Z,91.80
2018-03-15T08:27:16.671Z,90.50
2018-03-15T08:29:44.540Z,90.60
2018-03-15T08:32:10.973Z,90.50
2018-03-15T08:34:38.117Z,90.60
2018-03-15T08:37:04.694Z,90.70
2018-03-15T08:39:31.136Z,90.70
2018-03-15T08:41:57.551Z,90.30
2018-03-15T08:44:24.677Z,89.60
2018-03-15T08:46:52.639Z,90.10
2018-03-15T08:49:19.033Z,90.10
2018-03-15T08:51:45.504Z,89.00
2018-03-15T08:54:11.974Z,88.00
2018-03-15T08:56:38.570Z,87.20
2018-03-15T08:59:05.088Z,86.60
2018-03-15T09:01:33.339Z,87.80
2018-03-15T09:03:59.854Z,87.80
2018-03-15T09:06:26.376Z,88.00
2018-03-15T09:08:52.834Z,88.70
2018-03-15T09:11:19.219Z,88.90
2018-03-15T09:13:45.683Z,90.10
2018-03-15T09:16:12.111Z,90.00
2018-03-15T09:18:39.233Z,90.00
2018-03-15T09:21:05.616Z,90.00
2018-03-15T09:23:32.015Z,89.80
2018-03-15T09:25:59.142Z,90.10
2018-03-15T09:28:25.555Z,90.10
2018-03-15T09:30:51.948Z,90.10
2018-03-15T09:33:18.341Z,89.70
2018-03-15T09:35:45.483Z,90.10
2018-03-15T09:38:11.923Z,90.10
2018-03-15T09:40:39.096Z,89.60
2018-03-15T09:43:06.227Z,89.10
2018-03-15T09:45:33.367Z,89.80
2018-03-15T09:48:01.250Z,89.70
2018-03-15T09:50:28.367Z,90.10
2018-03-15T09:52:54.827Z,90.20
2018-03-15T09:55:21.283Z,89.80
2018-03-15T09:57:48.417Z,88.90
2018-03-15T10:00:14.898Z,88.90
2018-03-15T10:02:41.323Z,88.60
2018-03-15T10:05:07.733Z,88.30
2018-03-15T10:07:34.115Z,89.00
2018-03-15T10:10:00.515Z,89.60
2018-03-15T10:12:26.912Z,89.30
2018-03-15T10:14:54.062Z,90.00
2018-03-15T10:17:21.292Z,89.90
2018-03-15T10:19:47.686Z,89.80
2018-03-15T10:22:14.129Z,90.10
2018-03-15T10:24:40.533Z,90.40
2018-03-15T10:27:06.967Z,90.50
2018-03-15T10:29:33.370Z,90.20
2018-03-15T10:31:59.759Z,90.00
2018-03-15T10:34:26.332Z,89.40
2018-03-15T10:36:53.477Z,88.30
2018-03-15T10:39:23.684Z,88.20
2018-03-15T10:41:51.590Z,89.30
2018-03-15T10:44:18.784Z,88.70
2018-03-15T10:46:45.187Z,88.70
2018-03-15T10:49:11.602Z,88.80
2018-03-15T10:51:38.742Z,87.80
2018-03-15T10:54:05.164Z,87.80
2018-03-15T10:56:32.306Z,86.90
2018-03-15T10:58:58.710Z,86.90
2018-03-15T11:01:25.171Z,87.00
2018-03-15T11:03:51.613Z,86.60
2018-03-15T11:06:24.097Z,86.90
2018-03-15T11:08:57.484Z,87.80
2018-03-15T11:11:23.911Z,87.00
2018-03-15T11:13:51.803Z,88.10
2018-03-15T11:16:18.956Z,88.50
2018-03-15T11:18:46.117Z,87.40
2018-03-15T11:21:12.533Z,87.40
2018-03-15T11:23:39.734Z,87.70
2018-03-15T11:26:06.832Z,87.00
2018-03-15T11:28:34.011Z,87.60
2018-03-15T11:31:00.415Z,87.60
2018-03-15T11:33:27.581Z,89.20
2018-03-15T11:35:54.053Z,88.60
2018-03-15T11:38:20.596Z,87.40
2018-03-15T11:40:47.111Z,88.40
2018-03-15T11:43:13.621Z,87.80
2018-03-15T11:45:40.173Z,88.20
2018-03-15T11:48:06.726Z,87.70
2018-03-15T11:50:33.295Z,87.30
2018-03-15T11:53:00.452Z,87.60
2018-03-15T11:55:27.592Z,88.50
2018-03-15T11:57:53.996Z,87.80
2018-03-15T12:00:20.391Z,87.80
2018-03-15T12:02:47.526Z,88.80
2018-03-15T12:05:14.710Z,88.30
2018-03-15T12:07:41.174Z,88.30
2018-03-15T12:10:08.270Z,88.70
2018-03-15T12:12:35.468Z,88.70
2018-03-15T12:15:01.879Z,88.70
2018-03-15T12:17:28.370Z,89.90
2018-03-15T12:19:55.520Z,88.90
2018-03-15T12:22:23.406Z,89.10
2018-03-15T12:24:50.521Z,90.20
2018-03-15T12:27:16.912Z,90.20
2018-03-15T12:29:43.305Z,90.30
2018-03-15T12:32:11.161Z,89.10
2018-03-15T12:34:37.591Z,89.00
2018-03-15T12:37:04.820Z,89.20
2018-03-15T12:39:31.243Z,88.90
2018-03-15T12:41:57.660Z,88.70
2018-03-15T12:44:24.046Z,89.50
2018-03-15T12:46:50.452Z,89.50
2018-03-15T12:49:16.826Z,89.60
2018-03-15T12:51:43.981Z,89.40
2018-03-15T12:54:11.171Z,88.70
2018-03-15T12:56:37.593Z,88.60
2018-03-15T12:59:04.037Z,88.20
2018-03-15T13:01:30.439Z,89.00
2018-03-15T13:03:57.593Z,89.00
2018-03-15T13:06:24.724Z,89.70
2018-03-15T13:08:51.848Z,90.00
2018-03-15T13:11:18.236Z,90.00
2018-03-15T13:13:44.611Z,89.10
2018-03-15T13:16:11.212Z,88.40
2018-03-15T13:18:37.672Z,89.30
2018-03-15T13:21:04.064Z,89.70
2018-03-15T13:23:30.441Z,89.10
2018-03-15T13:25:56.838Z,89.20
2018-03-15T13:28:23.237Z,89.70
2018-03-15T13:30:50.349Z,88.50
2018-03-15T13:33:16.715Z,88.50
2018-03-15T13:35:43.989Z,87.20
2018-03-15T13:38:10.385Z,87.30
2018-03-15T13:40:37.514Z,89.10
2018-03-15T13:43:03.920Z,88.80
2018-03-15T13:45:30.346Z,87.50
2018-03-15T13:47:56.785Z,87.60
2018-03-15T13:50:23.189Z,88.10
2018-03-15T13:52:50.328Z,87.10
2018-03-15T13:55:17.476Z,85.80
2018-03-15T13:57:43.860Z,85.80
2018-03-15T14:00:10.280Z,85.50
2018-03-15T14:02:36.656Z,86.10
2018-03-15T14:05:03.093Z,86.40
2018-03-15T14:07:29.475Z,86.50
2018-03-15T14:09:55.900Z,87.00
2018-03-15T14:12:22.293Z,87.90
2018-03-15T14:14:48.674Z,89.30
2018-03-15T14:17:15.132Z,88.60
2018-03-15T14:19:42.270Z,89.00
2018-03-15T14:22:08.670Z,88.90
2018-03-15T14:24:35.786Z,90.10
2018-03-15T14:27:02.191Z,90.10
2018-03-15T14:29:28.609Z,90.10
2018-03-15T14:31:54.988Z,90.30
2018-03-15T14:34:22.857Z,90.60
2018-03-15T14:36:50.720Z,90.40
2018-03-15T14:39:17.096Z,90.30
2018-03-15T14:41:43.492Z,90.40
2018-03-15T14:44:10.619Z,90.30
2018-03-15T14:46:37.042Z,90.20
2018-03-15T14:49:03.452Z,90.30
2018-03-15T14:51:29.887Z,90.60
2018-03-15T14:53:56.280Z,90.60
2018-03-15T14:56:23.400Z,90.90
2018-03-15T14:58:49.766Z,90.90
2018-03-15T15:01:16.925Z,91.10
2018-03-15T15:03:43.341Z,91.00
2018-03-15T15:06:10.527Z,91.90
2018-03-15T15:08:36.937Z,91.90
2018-03-15T15:11:03.374Z,92.50
2018-03-15T15:13:30.489Z,92.30
2018-03-15T15:15:56.891Z,92.30
2018-03-15T15:18:23.301Z,92.40
2018-03-15T15:20:49.938Z,92.60
2018-03-15T15:23:17.036Z,91.90
2018-03-15T15:25:43.444Z,91.90
2018-03-15T15:28:09.881Z,91.80
2018-03-15T15:30:36.277Z,91.10
2018-03-15T15:33:02.741Z,90.90
2018-03-15T15:35:29.138Z,90.90
2018-03-15T15:37:56.279Z,90.90
2018-03-15T15:40:23.419Z,90.60
2018-03-15T15:42:50.556Z,90.70
2018-03-15T15:45:18.426Z,90.70
2018-03-15T15:47:44.813Z,90.70
2018-03-15T15:50:11.707Z,91.20
2018-03-15T15:52:39.579Z,91.20
2018-03-15T15:55:06.709Z,90.80
2018-03-15T15:57:34.554Z,90.70
2018-03-15T16:00:00.965Z,90.70
2018-03-15T16:02:27.354Z,91.10
2018-03-15T16:04:53.757Z,91.20
2018-03-15T16:07:20.158Z,91.40
2018-03-15T16:09:46.564Z,91.30
2018-03-15T16:12:13.699Z,90.50
2018-03-15T16:14:40.095Z,90.50
2018-03-15T16:17:06.471Z,90.50
2018-03-15T16:19:33.629Z,91.30
2018-03-15T16:22:00.794Z,91.40
2018-03-15T16:24:27.248Z,91.40
2018-03-15T16:26:53.661Z,91.70
2018-03-15T16:29:20.060Z,92.10
2018-03-15T16:31:47.221Z,92.40
2018-03-15T16:34:14.367Z,92.50
2018-03-15T16:36:41.534Z,92.50
2018-03-15T16:39:07.981Z,92.50
2018-03-15T16:41:34.375Z,92.50
2018-03-15T16:44:00.755Z,92.30
2018-03-15T16:46:27.145Z,92.50
2018-03-15T16:48:53.556Z,92.00
2018-03-15T16:51:19.935Z,92.00
2018-03-15T16:53:46.307Z,91.70
2018-03-15T16:56:12.702Z,91.90
2018-03-15T16:58:39.075Z,92.10
2018-03-15T17:01:05.467Z,92.20
2018-03-15T17:03:31.863Z,91.90
2018-03-15T17:05:58.262Z,92.00
2018-03-15T17:08:24.709Z,91.40
2018-03-15T17:10:51.069Z,90.90
2018-03-15T17:13:17.539Z,91.30
2018-03-15T17:15:43.927Z,91.50
2018-03-15T17:18:10.370Z,91.40
2018-03-15T17:20:36.760Z,91.30
2018-03-15T17:23:03.131Z,92.00
2018-03-15T17:25:30.323Z,92.20
2018-03-15T17:27:56.737Z,92.20
2018-03-15T17:30:23.144Z,92.20
2018-03-15T17:32:50.271Z,92.60
2018-03-15T17:35:16.671Z,92.30
2018-03-15T17:37:43.092Z,92.40
2018-03-15T17:40:09.505Z,92.70
2018-03-15T17:42:36.635Z,93.00
2018-03-15T17:45:03.067Z,93.00
2018-03-15T17:47:29.465Z,93.00
2018-03-15T17:49:55.844Z,93.10
2018-03-15T17:52:22.987Z,92.40
2018-03-15T17:54:50.142Z,92.30
2018-03-15T17:57:16.549Z,92.30
2018-03-15T17:59:42.966Z,92.00
2018-03-15T18:02:09.436Z,92.00
2018-03-15T18:04:36.563Z,92.90
2018-03-15T18:07:03.001Z,92.80
2018-03-15T18:09:29.401Z,92.70
2018-03-15T18:11:56.633Z,92.80
2018-03-15T18:14:23.009Z,92.60
2018-03-15T18:16:49.455Z,92.40
2018-03-15T18:19:17.363Z,92.80
2018-03-15T18:21:43.838Z,92.80
2018-03-15T18:24:10.224Z,92.90
2018-03-15T18:26:36.656Z,92.90
2018-03-15T18:29:03.067Z,92.40
2018-03-15T18:31:30.347Z,92.30
2018-03-15T18:33:56.733Z,92.30
2018-03-15T18:36:23.155Z,92.00
2018-03-15T18:38:49.536Z,92.30
2018-03-15T18:41:15.922Z,92.30
2018-03-15T18:43:48.448Z,92.10
2018-03-15T18:46:14.880Z,92.20
2018-03-15T18:48:41.269Z,92.60
2018-03-15T18:51:08.403Z,92.50
2018-03-15T18:53:34.823Z,92.50
2018-03-15T18:56:01.260Z,92.10
2018-03-15T18:58:28.582Z,91.80
2018-03-15T19:00:54.996Z,91.80
2018-03-15T19:03:22.142Z,92.50
2018-03-15T19:05:49.314Z,92.30
2018-03-15T19:08:15.729Z,92.30
2018-03-15T19:10:42.865Z,92.40
2018-03-15T19:13:10.003Z,92.20
2018-03-15T19:15:37.170Z,92.70
2018-03-15T19:18:04.379Z,92.70
2018-03-15T19:20:30.766Z,92.70
2018-03-15T19:22:57.168Z,92.80
2018-03-15T19:25:24.306Z,92.90
2018-03-15T19:27:50.776Z,92.80
2018-03-15T19:30:17.197Z,92.90
2018-03-15T19:32:44.403Z,92.90
2018-03-15T19:35:10.853Z,93.10
2018-03-15T19:37:37.357Z,93.50
2018-03-15T19:40:03.817Z,93.30
2018-03-15T19:42:30.211Z,93.40
2018-03-15T19:44:56.615Z,93.50
2018-03-15T19:47:23.781Z,94.00
2018-03-15T19:49:50.964Z,93.90
2018-03-15T19:52:17.365Z,93.90
2018-03-15T19:54:44.512Z,94.10
2018-03-15T19:57:10.918Z,94.00
2018-03-15T19:59:37.354Z,94.10
2018-03-15T20:02:04.580Z,94.60
2018-03-15T20:04:31.010Z,94.30
2018-03-15T20:06:57.441Z,94.20
2018-03-15T20:09:23.848Z,94.40
2018-03-15T20:11:50.231Z,94.40
2018-03-15T20:14:16.603Z,94.40
2018-03-15T20:16:43.003Z,94.70
2018-03-15T20:19:16.164Z,94.90
2018-03-15T20:21:42.560Z,94.70
2018-03-15T20:24:15.122Z,94.80
2018-03-15T20:26:42.263Z,94.90
2018-03-15T20:29:08.719Z,94.90
2018-03-15T20:31:35.143Z,95.00
2018-03-15T20:34:07.503Z,94.90
2018-03-15T20:36:34.627Z,95.00
2018-03-15T20:39:08.737Z,95.00
2018-03-15T20:41:35.144Z,95.00
2018-03-15T20:44:01.534Z,95.00
2018-03-15T20:46:34.907Z,95.00
2018-03-15T20:49:07.253Z,95.00
2018-03-15T20:51:33.632Z,95.00
2018-03-15T20:54:00.739Z,95.50
2018-03-15T20:56:27.126Z,95.40
2018-03-15T20:58:53.843Z,95.60
2018-03-15T21:01:20.998Z,95.90
2018-03-15T21:03:48.115Z,95.90
2018-03-15T21:06:15.999Z,95.80
2018-03-15T21:08:42.380Z,95.80
2018-03-15T21:11:08.820Z,95.70
2018-03-15T21:13:35.207Z,95.70
2018-03-15T21:16:02.353Z,95.60
2018-03-15T21:18:29.476Z,96.10
2018-03-15T21:20:55.955Z,95.80
2018-03-15T21:23:22.323Z,95.90
2018-03-15T21:25:48.796Z,95.90
2018-03-15T21:28:15.225Z,95.70
2018-03-15T21:30:42.344Z,95.00
2018-03-15T21:33:08.740Z,95.20
2018-03-15T21:35:35.315Z,95.30
2018-03-15T21:38:01.714Z,94.70
2018-03-15T21:40:28.118Z,94.60
2018-03-15T21:42:55.265Z,94.20
2018-03-15T21:45:21.651Z,94.10
2018-03-15T21:47:48.169Z,94.40
2018-03-15T21:50:14.611Z,94.20
2018-03-15T21:52:41.027Z,93.70
2018-03-15T21:55:07.439Z,93.50
2018-03-15T21:57:34.580Z,93.30
2018-03-15T22:00:01.732Z,92.70
2018-03-15T22:02:28.838Z,93.20
2018-03-15T22:04:55.615Z,93.20
2018-03-15T22:07:22.726Z,94.20
2018-03-15T22:09:49.133Z,94.00
2018-03-15T22:12:15.515Z,94.20
2018-03-15T22:14:41.909Z,93.80
2018-03-15T22:17:08.291Z,93.60
2018-03-15T22:19:34.672Z,94.00
2018-03-15T22:22:01.062Z,93.80
2018-03-15T22:24:28.256Z,92.90
2018-03-15T22:26:54.777Z,92.90
2018-03-15T22:29:21.141Z,92.90
2018-03-15T22:31:47.548Z,93.00
2018-03-15T22:34:13.957Z,93.40
2018-03-15T22:36:40.394Z,93.80
2018-03-15T22:39:07.167Z,94.10
2018-03-15T22:41:33.560Z,93.30
2018-03-15T22:44:00.691Z,93.70
2018-03-15T22:46:28.545Z,93.60
2018-03-15T22:48:54.950Z,93.60
2018-03-15T22:51:21.369Z,93.10
2018-03-15T22:53:48.552Z,92.90
2018-03-15T22:56:14.935Z,93.10
2018-03-15T22:58:41.312Z,92.50
2018-03-15T23:01:07.674Z,93.20
2018-03-15T23:03:34.868Z,92.80
2018-03-15T23:06:01.263Z,92.70
2018-03-15T23:08:28.403Z,92.50
2018-03-15T23:10:55.479Z,92.50
2018-03-15T23:13:21.876Z,92.90
2018-03-15T23:15:49.718Z,92.40
2018-03-15T23:18:16.108Z,92.30
2018-03-15T23:20:42.497Z,92.10
2018-03-15T23:23:10.368Z,91.80
2018-03-15T23:25:38.272Z,92.00
2018-03-15T23:28:04.813Z,92.00
2018-03-15T23:30:31.177Z,92.00
2018-03-15T23:32:57.596Z,92.10
2018-03-15T23:35:23.985Z,92.00
2018-03-15T23:37:51.119Z,93.30
2018-03-15T23:40:18.282Z,92.90
2018-03-15T23:42:45.407Z,93.20
2018-03-15T23:45:13.272Z,94.00
2018-03-15T23:47:39.636Z,94.00
2018-03-15T23:50:06.800Z,93.70
2018-03-15T23:52:33.192Z,93.70
2018-03-15T23:54:59.599Z,93.50
2018-03-15T23:57:26.004Z,93.00
2018-03-15T23:59:52.434Z,92.80
